James L. Oberstar — WDC6154 — position and weather

sailwx.info

Track history (hours):
 
Tides and Currents Weather Stations Pressure Air Temp Water Temp Dewpoint Dewpoint Depression Visibility Wind Speed Wind Dir Waves Ship Positions

James L. Oberstar

Owner: Destin Trading Corporation, harahan, LA. More information available from US FCC via Universal Licensing System and Coast Guard Vessel Documentation Center.

Last reported at 2015-Mar-23 23:15 UTC. Time now 2015-Mar-28 18:49 UTC.
Position N 29°29' W 094°52'.

Length 26 m; draft 2.8 m.

Type: Towing. MMSI: 367052120.

Date/timePositionNaut miles runAvg speedWind from/ knotsBaromVisibWave heightAir tempDewpointWater temp
2015-Mar-23 23:15N 29°29' W 094°52'5 7.6
2015-Mar-23 22:33N 29°34' W 094°55'7 7.2
2015-Mar-23 21:33N 29°40' W 094°59'7 6.9
2015-Mar-23 20:33N 29°46' W 095°04'2 1.9
2015-Mar-23 19:32N 29°47' W 095°04'0 0.2
2015-Mar-23 18:17N 29°47' W 095°05'0 0.0
2015-Mar-23 17:32N 29°47' W 095°05'0 0.0
2015-Mar-23 16:32N 29°47' W 095°05'0 0.0
2015-Mar-23 15:32N 29°47' W 095°05'0 0.0
2015-Mar-23 14:32N 29°47' W 095°05'0 0.0
2015-Mar-23 13:32N 29°47' W 095°05'0 0.0
2015-Mar-23 12:12N 29°47' W 095°05'0 0.2
2015-Mar-23 11:13N 29°47' W 095°05'0 0.0
2015-Mar-23 05:14N 29°47' W 095°05'0 0.0
2015-Mar-23 02:23N 29°47' W 095°05'0 0.0
2015-Mar-21 22:07N 29°47' W 095°05'0 0.1
2015-Mar-21 21:22N 29°47' W 095°05'0 0.0
2015-Mar-21 13:19N 29°47' W 095°05'0 0.1
2015-Mar-21 12:17N 29°47' W 095°05'5 0.3
2015-Mar-20 18:33N 29°44' W 095°08'0 0.0
2015-Mar-20 17:30N 29°44' W 095°08'0 0.0
2015-Mar-20 16:33N 29°44' W 095°08'0 0.3
2015-Mar-20 15:33N 29°44' W 095°08'0 0.0
2015-Mar-20 14:33N 29°44' W 095°08'0 0.0
2015-Mar-20 13:33N 29°44' W 095°08'0 0.0
2015-Mar-19 15:31N 29°44' W 095°08'0 0.0
2015-Mar-19 14:31N 29°44' W 095°08'14781477.6
2015-Mar-19 13:31N 05°06' W 095°08'1478112.1
2015-Mar-19 00:20N 29°44' W 095°08'1 0.7
2015-Mar-18 22:26N 29°45' W 095°06'0 0.0
2015-Mar-18 21:32N 29°45' W 095°06'0 0.0
2015-Mar-18 20:11N 29°45' W 095°06'0 0.0
2015-Mar-18 19:29N 29°45' W 095°06'0 0.0
2015-Mar-18 18:32N 29°45' W 095°06'0 0.0
2015-Mar-18 17:32N 29°45' W 095°06'0 0.0
2015-Mar-18 16:32N 29°45' W 095°06'0 0.0
2015-Mar-18 15:32N 29°45' W 095°06'0 0.0
2015-Mar-18 14:32N 29°45' W 095°06'0 0.0
2015-Mar-18 13:32N 29°45' W 095°06'0 0.0
2015-Mar-18 12:32N 29°45' W 095°06'0 0.0
2015-Mar-18 11:32N 29°45' W 095°06'0 0.0
2015-Mar-18 10:28N 29°45' W 095°06'0 0.0
2015-Mar-18 09:31N 29°45' W 095°06'0 0.0
2015-Mar-18 08:25N 29°45' W 095°06'0 0.0
2015-Mar-18 07:31N 29°45' W 095°06'0 0.0
2015-Mar-18 06:31N 29°45' W 095°06'0 0.2
2015-Mar-18 05:25N 29°45' W 095°06'3 1.5
2015-Mar-18 03:32N 29°47' W 095°05'0 0.1
2015-Mar-18 01:16N 29°47' W 095°05'0 0.0
2015-Mar-17 19:13N 29°47' W 095°05'0 0.0
2015-Mar-17 18:31N 29°47' W 095°05'0 0.0
2015-Mar-17 14:31N 29°47' W 095°05'0 0.0
2015-Mar-17 13:07N 29°47' W 095°05'0 0.0
2015-Mar-16 22:11N 29°47' W 095°05'0 0.0
2015-Mar-16 20:05N 29°47' W 095°05'0 0.0
2015-Mar-16 19:11N 29°47' W 095°05'0 0.1
2015-Mar-16 17:28N 29°47' W 095°04'1 0.7
2015-Mar-16 16:32N 29°47' W 095°05'0 0.1
2015-Mar-16 15:31N 29°47' W 095°05'0 0.0
2015-Mar-16 14:22N 29°47' W 095°05'0 0.0
2015-Mar-16 13:31N 29°47' W 095°05'0 0.0
2015-Mar-16 11:32N 29°47' W 095°05'0 0.5
2015-Mar-16 10:32N 29°46' W 095°05'2 1.7
2015-Mar-16 09:33N 29°45' W 095°06'0 0.0
2015-Mar-16 08:30N 29°45' W 095°06'0 0.0
2015-Mar-16 07:24N 29°45' W 095°06'0 0.0
2015-Mar-16 06:33N 29°45' W 095°06'0 0.0
2015-Mar-16 05:33N 29°45' W 095°06'0 0.0
2015-Mar-16 04:33N 29°45' W 095°06'0 0.0
2015-Mar-16 03:30N 29°45' W 095°06'0 0.0
2015-Mar-16 02:33N 29°45' W 095°06'0 0.0
2015-Mar-16 01:33N 29°45' W 095°06'0 0.0
2015-Mar-16 00:33N 29°45' W 095°06'0 0.0
2015-Mar-15 23:33N 29°45' W 095°06'0 0.0
2015-Mar-15 22:27N 29°45' W 095°06'0 0.0
2015-Mar-15 19:24N 29°45' W 095°06'0 0.0
2015-Mar-15 17:33N 29°45' W 095°06'0 0.0
2015-Mar-15 16:33N 29°45' W 095°06'0 0.0
2015-Mar-15 15:33N 29°45' W 095°06'1 0.6
2015-Mar-15 14:34N 29°45' W 095°05'1 1.1
2015-Mar-15 13:28N 29°47' W 095°05'0 0.0
2015-Mar-15 12:31N 29°47' W 095°05'0 0.0
2015-Mar-15 11:31N 29°47' W 095°05'0 0.0
2015-Mar-15 10:31N 29°47' W 095°05'0 0.0
2015-Mar-15 09:31N 29°47' W 095°05'1 0.8
2015-Mar-15 08:32N 29°47' W 095°05'0 0.1
2015-Mar-15 07:32N 29°47' W 095°05'0 0.0
2015-Mar-15 06:32N 29°47' W 095°05'0 0.1
2015-Mar-15 05:33N 29°47' W 095°05'1 0.7
2015-Mar-15 04:32N 29°47' W 095°05'0 0.0
2015-Mar-15 03:32N 29°47' W 095°05'0 0.0
2015-Mar-15 02:32N 29°47' W 095°05'2 2.3
2015-Mar-15 01:34N 29°45' W 095°06'2 1.7
2015-Mar-15 00:33N 29°44' W 095°08'0 0.0
2015-Mar-14 23:33N 29°44' W 095°08'0 0.0
2015-Mar-14 22:33N 29°44' W 095°08'0 0.0
2015-Mar-14 21:33N 29°44' W 095°08'0 0.0
2015-Mar-14 20:33N 29°44' W 095°08'0 0.0
2015-Mar-14 19:32N 29°44' W 095°08'3 3.4
2015-Mar-14 18:33N 29°46' W 095°05'5 4.8
2015-Mar-14 17:34N 29°42' W 095°01'6 6.1
2015-Mar-14 16:34N 29°37' W 094°57'7 7.2
2015-Mar-14 15:33N 29°31' W 094°53'9 7.2
2015-Mar-14 14:17N 29°23' W 094°48'4 4.8
2015-Mar-14 13:33N 29°24' W 094°45'4 4.1
2015-Mar-14 12:33N 29°27' W 094°41'  
Track history (hours):
 
Tides and Currents Weather Stations Pressure Air Temp Water Temp Dewpoint Dewpoint Depression Visibility Wind Speed Wind Dir Waves Ship Positions

James L. Oberstar

Owner: Destin Trading Corporation, harahan, LA. More information available from US FCC via Universal Licensing System and Coast Guard Vessel Documentation Center.

Last reported at 2015-Mar-23 23:15 UTC. Time now 2015-Mar-28 18:49 UTC.
Position N 29°29' W 094°52'.

Length 26 m; draft 2.8 m.

Type: Towing. MMSI: 367052120.

Date/timePositionNaut miles runAvg speedWind from/ knotsBaromVisibWave heightAir tempDewpointWater temp
2015-Mar-23 23:15N 29°29' W 094°52'5 7.6
2015-Mar-23 22:33N 29°34' W 094°55'7 7.2
2015-Mar-23 21:33N 29°40' W 094°59'7 6.9
2015-Mar-23 20:33N 29°46' W 095°04'2 1.9
2015-Mar-23 19:32N 29°47' W 095°04'0 0.2
2015-Mar-23 18:17N 29°47' W 095°05'0 0.0
2015-Mar-23 17:32N 29°47' W 095°05'0 0.0
2015-Mar-23 16:32N 29°47' W 095°05'0 0.0
2015-Mar-23 15:32N 29°47' W 095°05'0 0.0
2015-Mar-23 14:32N 29°47' W 095°05'0 0.0
2015-Mar-23 13:32N 29°47' W 095°05'0 0.0
2015-Mar-23 12:12N 29°47' W 095°05'0 0.2
2015-Mar-23 11:13N 29°47' W 095°05'0 0.0
2015-Mar-23 05:14N 29°47' W 095°05'0 0.0
2015-Mar-23 02:23N 29°47' W 095°05'0 0.0
2015-Mar-21 22:07N 29°47' W 095°05'0 0.1
2015-Mar-21 21:22N 29°47' W 095°05'0 0.0
2015-Mar-21 13:19N 29°47' W 095°05'0 0.1
2015-Mar-21 12:17N 29°47' W 095°05'5 0.3
2015-Mar-20 18:33N 29°44' W 095°08'0 0.0
2015-Mar-20 17:30N 29°44' W 095°08'0 0.0
2015-Mar-20 16:33N 29°44' W 095°08'0 0.3
2015-Mar-20 15:33N 29°44' W 095°08'0 0.0
2015-Mar-20 14:33N 29°44' W 095°08'0 0.0
2015-Mar-20 13:33N 29°44' W 095°08'0 0.0
2015-Mar-19 15:31N 29°44' W 095°08'0 0.0
2015-Mar-19 14:31N 29°44' W 095°08'14781477.6
2015-Mar-19 13:31N 05°06' W 095°08'1478112.1
2015-Mar-19 00:20N 29°44' W 095°08'1 0.7
2015-Mar-18 22:26N 29°45' W 095°06'0 0.0
2015-Mar-18 21:32N 29°45' W 095°06'0 0.0
2015-Mar-18 20:11N 29°45' W 095°06'0 0.0
2015-Mar-18 19:29N 29°45' W 095°06'0 0.0
2015-Mar-18 18:32N 29°45' W 095°06'0 0.0
2015-Mar-18 17:32N 29°45' W 095°06'0 0.0
2015-Mar-18 16:32N 29°45' W 095°06'0 0.0
2015-Mar-18 15:32N 29°45' W 095°06'0 0.0
2015-Mar-18 14:32N 29°45' W 095°06'0 0.0
2015-Mar-18 13:32N 29°45' W 095°06'0 0.0
2015-Mar-18 12:32N 29°45' W 095°06'0 0.0
2015-Mar-18 11:32N 29°45' W 095°06'0 0.0
2015-Mar-18 10:28N 29°45' W 095°06'0 0.0
2015-Mar-18 09:31N 29°45' W 095°06'0 0.0
2015-Mar-18 08:25N 29°45' W 095°06'0 0.0
2015-Mar-18 07:31N 29°45' W 095°06'0 0.0
2015-Mar-18 06:31N 29°45' W 095°06'0 0.2
2015-Mar-18 05:25N 29°45' W 095°06'3 1.5
2015-Mar-18 03:32N 29°47' W 095°05'0 0.1
2015-Mar-18 01:16N 29°47' W 095°05'0 0.0
2015-Mar-17 19:13N 29°47' W 095°05'0 0.0
2015-Mar-17 18:31N 29°47' W 095°05'0 0.0
2015-Mar-17 14:31N 29°47' W 095°05'0 0.0
2015-Mar-17 13:07N 29°47' W 095°05'0 0.0
2015-Mar-16 22:11N 29°47' W 095°05'0 0.0
2015-Mar-16 20:05N 29°47' W 095°05'0 0.0
2015-Mar-16 19:11N 29°47' W 095°05'0 0.1
2015-Mar-16 17:28N 29°47' W 095°04'1 0.7
2015-Mar-16 16:32N 29°47' W 095°05'0 0.1
2015-Mar-16 15:31N 29°47' W 095°05'0 0.0
2015-Mar-16 14:22N 29°47' W 095°05'0 0.0
2015-Mar-16 13:31N 29°47' W 095°05'0 0.0
2015-Mar-16 11:32N 29°47' W 095°05'0 0.5
2015-Mar-16 10:32N 29°46' W 095°05'2 1.7
2015-Mar-16 09:33N 29°45' W 095°06'0 0.0
2015-Mar-16 08:30N 29°45' W 095°06'0 0.0
2015-Mar-16 07:24N 29°45' W 095°06'0 0.0
2015-Mar-16 06:33N 29°45' W 095°06'0 0.0
2015-Mar-16 05:33N 29°45' W 095°06'0 0.0
2015-Mar-16 04:33N 29°45' W 095°06'0 0.0
2015-Mar-16 03:30N 29°45' W 095°06'0 0.0
2015-Mar-16 02:33N 29°45' W 095°06'0 0.0
2015-Mar-16 01:33N 29°45' W 095°06'0 0.0
2015-Mar-16 00:33N 29°45' W 095°06'0 0.0
2015-Mar-15 23:33N 29°45' W 095°06'0 0.0
2015-Mar-15 22:27N 29°45' W 095°06'0 0.0
2015-Mar-15 19:24N 29°45' W 095°06'0 0.0
2015-Mar-15 17:33N 29°45' W 095°06'0 0.0
2015-Mar-15 16:33N 29°45' W 095°06'0 0.0
2015-Mar-15 15:33N 29°45' W 095°06'1 0.6
2015-Mar-15 14:34N 29°45' W 095°05'1 1.1
2015-Mar-15 13:28N 29°47' W 095°05'0 0.0
2015-Mar-15 12:31N 29°47' W 095°05'0 0.0
2015-Mar-15 11:31N 29°47' W 095°05'0 0.0
2015-Mar-15 10:31N 29°47' W 095°05'0 0.0
2015-Mar-15 09:31N 29°47' W 095°05'1 0.8
2015-Mar-15 08:32N 29°47' W 095°05'0 0.1
2015-Mar-15 07:32N 29°47' W 095°05'0 0.0
2015-Mar-15 06:32N 29°47' W 095°05'0 0.1
2015-Mar-15 05:33N 29°47' W 095°05'1 0.7
2015-Mar-15 04:32N 29°47' W 095°05'0 0.0
2015-Mar-15 03:32N 29°47' W 095°05'0 0.0
2015-Mar-15 02:32N 29°47' W 095°05'2 2.3
2015-Mar-15 01:34N 29°45' W 095°06'2 1.7
2015-Mar-15 00:33N 29°44' W 095°08'0 0.0
2015-Mar-14 23:33N 29°44' W 095°08'0 0.0
2015-Mar-14 22:33N 29°44' W 095°08'0 0.0
2015-Mar-14 21:33N 29°44' W 095°08'0 0.0
2015-Mar-14 20:33N 29°44' W 095°08'0 0.0
2015-Mar-14 19:32N 29°44' W 095°08'3 3.4
2015-Mar-14 18:33N 29°46' W 095°05'5 4.8
2015-Mar-14 17:34N 29°42' W 095°01'6 6.1
2015-Mar-14 16:34N 29°37' W 094°57'7 7.2
2015-Mar-14 15:33N 29°31' W 094°53'9 7.2
2015-Mar-14 14:17N 29°23' W 094°48'4 4.8
2015-Mar-14 13:33N 29°24' W 094°45'4 4.1
2015-Mar-14 12:33N 29°27' W 094°41'  

Dump ship's entire track history